Time;durP1;ratioP1;P1;durP2;ratioP2;P2;SDS_P1;SDS_P2;PMS_P1;PMS_P2;Temp;Humidity;BMP_temperature;BMP_pressure;BME280_temperature;BME280_humidity;BME280_pressure;Samples;Min_cycle;Max_cycle;Signal;HPM_P1;HPM_P2
2022/06/09 00:04:22;;;;;;;8.30;7.60;;;;;;;16.24;79.31;98823.31;430605;1270;142148;-57
2022/06/09 00:14:25;;;;;;;12.00;10.90;;;;;;;16.19;79.47;98829.77;434485;1269;142615;-57
2022/06/09 00:24:28;;;;;;;12.80;11.50;;;;;;;16.19;80.15;98829.44;432563;1269;143078;-57
2022/06/09 00:34:31;;;;;;;13.90;12.40;;;;;;;16.19;80.52;98822.84;431332;1270;143433;-57
2022/06/09 00:44:38;;;;;;;12.40;11.30;;;;;;;16.20;80.88;98818.95;430403;1268;143688;-59
2022/06/09 00:54:45;;;;;;;13.10;12.00;;;;;;;16.21;81.14;98816.33;432344;1270;143752;-56
2022/06/09 01:04:52;;;;;;;14.20;12.90;;;;;;;16.20;81.46;98805.67;431141;1270;143061;-58
2022/06/09 01:14:59;;;;;;;13.70;12.30;;;;;;;16.19;81.79;98801.55;433084;1270;141588;-56
2022/06/09 01:25:37;;;;;;;15.00;13.20;;;;;;;16.15;82.18;98783.59;432796;1270;142644;-62
2022/06/09 01:35:48;;;;;;;16.60;15.10;;;;;;;16.10;82.63;98775.96;430764;1270;143342;-57
2022/06/09 01:46:02;;;;;;;15.70;14.30;;;;;;;16.09;82.83;98772.13;431021;1270;142437;-57
2022/06/09 01:56:09;;;;;;;16.90;15.30;;;;;;;16.10;83.01;98769.92;431536;1270;142493;-57
2022/06/09 02:06:14;;;;;;;19.20;17.40;;;;;;;16.12;83.27;98762.20;432867;1270;143066;-58
2022/06/09 02:16:21;;;;;;;17.10;15.50;;;;;;;16.16;83.42;98750.52;431509;1270;143006;-57
2022/06/09 02:26:25;;;;;;;18.40;16.50;;;;;;;16.12;83.59;98743.78;431710;1270;143091;-57
2022/06/09 02:36:28;;;;;;;17.60;16.10;;;;;;;16.08;83.62;98756.25;431932;1270;143605;-58
2022/06/09 02:46:32;;;;;;;16.60;15.00;;;;;;;16.07;83.76;98748.88;431614;1270;142728;-57
2022/06/09 02:56:35;;;;;;;17.50;15.50;;;;;;;16.08;83.76;98735.20;430925;1270;143686;-58
2022/06/09 03:06:38;;;;;;;17.10;15.50;;;;;;;16.12;83.55;98719.77;431339;1270;143611;-57
2022/06/09 03:16:41;;;;;;;13.00;11.80;;;;;;;16.26;83.31;98728.64;431873;1270;142083;-58
2022/06/09 03:26:45;;;;;;;11.60;10.50;;;;;;;16.56;82.33;98724.75;432125;1270;142821;-57
2022/06/09 03:36:48;;;;;;;13.20;11.30;;;;;;;16.60;81.34;98710.17;433332;1270;142937;-57
2022/06/09 03:46:52;;;;;;;13.50;12.30;;;;;;;16.55;80.94;98691.80;431738;1270;142473;-57
2022/06/09 03:56:55;;;;;;;15.40;14.00;;;;;;;16.69;81.00;98699.48;433986;1270;142545;-57
2022/06/09 04:06:58;;;;;;;11.00;9.90;;;;;;;17.23;80.59;98738.70;432716;1269;145672;-58
2022/06/09 04:17:01;;;;;;;18.20;16.30;;;;;;;17.32;79.69;98804.79;432529;1270;145996;-57
2022/06/09 04:27:06;;;;;;;16.30;14.80;;;;;;;16.84;80.52;98837.99;431500;1270;143148;-56
2022/06/09 04:37:09;;;;;;;15.00;13.50;;;;;;;16.40;81.58;98827.73;430650;1270;143651;-57
2022/06/09 04:47:13;;;;;;;14.50;13.20;;;;;;;16.24;82.59;98808.81;430951;1270;142736;-56
2022/06/09 04:57:16;;;;;;;12.40;11.30;;;;;;;16.18;83.35;98782.96;431442;1270;143783;-56
2022/06/09 05:07:19;;;;;;;12.20;10.50;;;;;;;16.19;83.89;98769.38;431344;1270;142066;-56
2022/06/09 05:17:22;;;;;;;9.90;9.00;;;;;;;16.24;84.19;98745.80;432173;1268;147932;-58
2022/06/09 05:27:25;;;;;;;9.80;8.70;;;;;;;16.30;84.21;98718.19;435183;1270;144165;-56
2022/06/09 05:44:50;;;;;;;9.00;8.20;;;;;;;16.53;84.27;98716.13;433167;1270;147267;-56
2022/06/09 05:47:52;;;;;;;9.50;8.50;;;;;;;17.25;84.30;98733.00;431334;1270;142052;-57
2022/06/09 05:57:55;;;;;;;11.50;8.60;;;;;;;21.43;82.15;98735.45;431859;1270;141964;-57
2022/06/09 06:07:58;;;;;;;7.70;6.90;;;;;;;22.36;73.24;98733.67;431813;1269;142687;-57
2022/06/09 06:18:02;;;;;;;9.90;9.10;;;;;;;21.03;73.43;98756.58;438756;1269;142167;-57
2022/06/09 06:28:06;;;;;;;13.20;11.90;;;;;;;19.99;74.64;98772.45;446659;1269;143190;-57
2022/06/09 06:38:10;;;;;;;15.60;14.20;;;;;;;19.66;75.34;98762.14;443689;1269;142720;-58
2022/06/09 06:48:14;;;;;;;21.00;18.90;;;;;;;19.16;75.88;98752.17;433500;1270;141729;-57
2022/06/09 06:58:17;;;;;;;19.20;17.20;;;;;;;18.86;76.95;98755.48;447667;1269;143192;-57
2022/06/09 07:08:20;;;;;;;20.00;17.40;;;;;;;18.99;77.21;98762.23;446948;1270;146493;-57
2022/06/09 07:18:23;;;;;;;20.40;18.50;;;;;;;19.29;77.17;98765.23;440658;1270;142352;-58
2022/06/09 07:28:27;;;;;;;18.50;16.80;;;;;;;19.99;76.40;98771.10;447764;1268;142783;-57
2022/06/09 07:38:30;;;;;;;17.20;15.80;;;;;;;20.95;75.06;98772.70;447140;1269;143529;-58
2022/06/09 07:48:33;;;;;;;18.00;15.60;;;;;;;21.49;73.08;98768.91;447930;1269;144431;-58
2022/06/09 07:58:52;;;;;;;18.30;16.70;;;;;;;21.55;72.17;98775.95;446618;1270;143179;-57
2022/06/09 08:08:57;;;;;;;18.70;16.90;;;;;;;21.26;71.87;98785.54;441637;1269;142251;-57
2022/06/09 08:19:00;;;;;;;20.30;15.40;;;;;;;22.63;71.73;98773.88;443322;1270;143471;-57
2022/06/09 08:29:04;;;;;;;17.40;16.00;;;;;;;24.61;68.51;98779.48;440749;1269;270774;-57
2022/06/09 08:39:08;;;;;;;15.90;14.50;;;;;;;25.18;65.69;98782.02;439687;1270;143479;-56
2022/06/09 08:49:30;;;;;;;11.70;10.70;;;;;;;26.09;63.99;98786.13;447694;1270;143115;-58
2022/06/09 08:59:37;;;;;;;12.20;9.10;;;;;;;26.04;61.09;98783.36;447090;1270;142432;-58
2022/06/09 09:09:41;;;;;;;10.80;9.90;;;;;;;26.70;59.93;98788.73;447864;1269;143003;-58
2022/06/09 09:19:52;;;;;;;8.90;8.00;;;;;;;27.54;58.26;98795.76;435918;1271;142010;-58
2022/06/09 09:30:11;;;;;;;9.40;8.70;;;;;;;28.95;55.75;98795.11;439329;1270;209448;-57
2022/06/09 09:40:19;;;;;;;6.30;5.80;;;;;;;29.03;53.35;98794.57;439633;1269;141229;-57
2022/06/09 09:50:32;;;;;;;6.40;3.60;;;;;;;29.24;51.80;98792.64;446978;1269;141822;-58
2022/06/09 10:00:36;;;;;;;4.50;4.20;;;;;;;28.66;49.87;98792.14;441345;1270;141825;-56
2022/06/09 10:10:58;;;;;;;3.60;3.30;;;;;;;27.74;49.52;98795.28;438064;1269;141004;-57
2022/06/09 10:21:09;;;;;;;3.80;3.50;;;;;;;27.84;48.64;98799.36;444910;1269;141005;-57
2022/06/09 10:31:26;;;;;;;2.80;2.60;;;;;;;27.64;48.29;98800.86;447827;1269;141869;-58
2022/06/09 10:41:40;;;;;;;5.50;3.40;;;;;;;28.10;47.37;98810.35;443059;1270;142264;-57
2022/06/09 11:02:14;;;;;;;4.40;4.10;;;;;;;27.95;47.35;98787.76;447014;1269;142205;-57
2022/06/09 11:12:26;;;;;;;6.00;5.30;;;;;;;27.93;47.83;98777.35;447785;1269;142269;-57
2022/06/09 11:22:44;;;;;;;5.90;4.50;;;;;;;28.18;47.91;98760.70;438476;1269;141354;-58
2022/06/09 11:32:59;;;;;;;6.50;6.00;;;;;;;27.54;48.68;98757.93;447796;1269;141898;-58
2022/06/09 11:43:22;;;;;;;6.40;5.80;;;;;;;26.60;50.03;98766.64;443135;1270;142605;-56
2022/06/09 11:53:29;;;;;;;7.50;6.70;;;;;;;26.44;50.42;98771.82;431920;1270;143586;-59
2022/06/09 12:03:48;;;;;;;9.80;8.80;;;;;;;26.71;51.06;98756.79;445268;1269;141416;-56
2022/06/09 12:14:09;;;;;;;10.10;9.10;;;;;;;25.90;52.13;98767.45;439102;1270;142277;-57
2022/06/09 12:24:36;;;;;;;10.80;9.80;;;;;;;24.71;54.61;98778.36;434396;1269;143174;-57
2022/06/09 12:34:45;;;;;;;13.50;12.30;;;;;;;23.50;57.88;98783.88;438834;1269;141166;-57
2022/06/09 12:44:53;;;;;;;13.90;12.70;;;;;;;22.37;60.99;98795.06;433733;1270;147121;-56
2022/06/09 12:54:58;;;;;;;15.80;14.30;;;;;;;22.11;63.52;98799.06;431556;1270;147608;-57
2022/06/09 13:05:15;;;;;;;20.00;18.30;;;;;;;22.79;64.15;98787.13;430273;1270;142008;-56
2022/06/09 13:15:26;;;;;;;20.90;19.20;;;;;;;23.88;64.24;98791.16;432668;1270;142283;-56
2022/06/09 13:25:33;;;;;;;17.30;15.90;;;;;;;24.63;63.08;98778.39;431863;1270;142694;-57
2022/06/09 13:35:40;;;;;;;14.30;13.20;;;;;;;24.56;62.51;98777.75;432218;1270;143482;-56
2022/06/09 13:45:50;;;;;;;11.50;10.60;;;;;;;24.41;62.39;98803.55;432388;1270;143304;-56
2022/06/09 13:55:54;;;;;;;8.50;7.80;;;;;;;24.12;60.79;98826.92;432206;1270;143077;-58
2022/06/09 14:06:00;;;;;;;9.40;8.80;;;;;;;23.93;60.58;98824.63;435773;1269;141748;-56
2022/06/09 14:16:04;;;;;;;11.20;10.20;;;;;;;23.76;61.24;98813.73;430200;1270;143859;-56
2022/06/09 14:26:16;;;;;;;13.90;12.80;;;;;;;23.55;62.60;98799.21;430835;1270;144386;-56
2022/06/09 14:36:21;;;;;;;14.60;13.40;;;;;;;23.41;63.55;98789.73;431854;1270;141992;-55
2022/06/09 14:46:27;;;;;;;15.40;14.10;;;;;;;23.00;64.40;98790.92;431028;1270;149187;-55
2022/06/09 14:56:35;;;;;;;16.70;15.10;;;;;;;22.54;65.59;98799.84;431255;1270;143772;-56
2022/06/09 15:06:39;;;;;;;15.40;14.00;;;;;;;22.01;66.77;98803.66;430938;1270;146162;-55
2022/06/09 15:16:42;;;;;;;15.10;13.70;;;;;;;21.60;67.82;98803.75;433654;1270;142559;-56
2022/06/09 15:26:46;;;;;;;16.10;14.80;;;;;;;21.36;68.43;98795.23;431974;1270;146522;-56
2022/06/09 15:36:50;;;;;;;17.00;15.70;;;;;;;21.22;69.32;98808.34;432265;1270;143011;-56
2022/06/09 15:46:53;;;;;;;19.50;17.70;;;;;;;21.09;70.59;98832.28;431573;1270;146026;-57
2022/06/09 15:57:06;;;;;;;19.60;17.80;;;;;;;21.04;71.89;98830.33;432094;1270;142705;-56
2022/06/09 16:07:12;;;;;;;20.60;18.70;;;;;;;21.05;72.93;98825.66;433082;1269;147324;-56
2022/06/09 16:17:15;;;;;;;22.30;18.40;;;;;;;21.21;73.58;98835.63;437583;1270;142885;-56
2022/06/09 16:27:18;;;;;;;20.10;18.30;;;;;;;21.54;73.67;98847.56;432045;1269;142728;-56
2022/06/09 16:37:21;;;;;;;17.10;15.60;;;;;;;21.80;73.35;98853.05;432534;1270;142764;-55
2022/06/09 16:47:25;;;;;;;15.60;14.20;;;;;;;21.88;73.28;98856.70;430811;1270;143546;-56
2022/06/09 16:57:28;;;;;;;16.60;15.30;;;;;;;22.00;72.86;98856.21;433511;1270;142675;-55
2022/06/09 17:07:32;;;;;;;15.20;13.80;;;;;;;22.17;72.47;98862.77;431986;1270;142657;-56
2022/06/09 17:17:37;;;;;;;14.90;13.60;;;;;;;22.41;71.98;98877.48;431007;1270;144281;-56
2022/06/09 17:27:41;;;;;;;14.00;12.90;;;;;;;22.39;71.46;98875.76;430852;1270;141776;-57
2022/06/09 17:37:44;;;;;;;15.40;14.00;;;;;;;22.18;71.86;98880.39;431392;1270;142699;-56
2022/06/09 17:47:49;;;;;;;15.30;13.90;;;;;;;21.92;72.79;98894.54;430740;1270;141809;-56
2022/06/09 17:57:54;;;;;;;15.10;13.80;;;;;;;21.66;73.90;98913.42;431009;1270;142899;-56
2022/06/09 18:07:58;;;;;;;3.90;3.40;;;;;;;21.20;73.82;99025.38;430574;1268;143428;-56
2022/06/09 18:18:03;;;;;;;3.30;1.90;;;;;;;19.28;70.43;99091.55;434011;1269;142065;-55
2022/06/09 18:28:07;;;;;;;4.80;2.80;;;;;;;17.51;72.60;99081.31;433052;1270;145588;-54
2022/06/09 18:38:12;;;;;;;3.80;2.20;;;;;;;16.73;74.59;99039.51;430972;1270;201102;-56
2022/06/09 18:48:19;;;;;;;3.80;2.50;;;;;;;16.29;75.48;99041.79;430366;1270;142071;-56
2022/06/09 18:58:22;;;;;;;5.30;3.70;;;;;;;16.03;76.38;99032.42;431241;1270;142651;-54
2022/06/09 19:08:27;;;;;;;10.10;5.50;;;;;;;15.97;77.10;99037.09;429863;1270;142645;-55
2022/06/09 19:18:30;;;;;;;11.50;4.10;;;;;;;15.94;78.14;99040.69;437151;1269;145165;-55
2022/06/09 19:28:35;;;;;;;5.40;5.00;;;;;;;15.91;79.14;99038.49;432055;1270;146429;-56
2022/06/09 19:38:40;;;;;;;6.50;5.00;;;;;;;15.93;80.10;99034.93;436225;1270;142567;-56
2022/06/09 19:48:43;;;;;;;6.60;5.10;;;;;;;15.96;80.66;99050.89;434060;1270;143122;-54
2022/06/09 19:58:47;;;;;;;5.00;3.90;;;;;;;15.93;81.07;99086.48;431356;1270;143588;-58
2022/06/09 20:08:53;;;;;;;9.50;4.50;;;;;;;15.87;81.35;99107.85;431582;1269;155407;-56
2022/06/09 20:18:57;;;;;;;5.00;4.20;;;;;;;15.80;81.70;99121.55;433970;1269;141864;-55
2022/06/09 20:29:00;;;;;;;8.40;5.90;;;;;;;15.76;82.15;99112.57;430854;1270;756245;-55
2022/06/09 20:39:05;;;;;;;8.90;7.10;;;;;;;15.68;82.36;99105.33;431509;1270;141865;-55
2022/06/09 20:49:15;;;;;;;7.70;5.30;;;;;;;15.62;82.76;99080.38;431209;1270;141452;-57
2022/06/09 20:59:18;;;;;;;5.30;4.40;;;;;;;15.55;83.47;99069.53;430072;1270;141803;-56
2022/06/09 21:09:24;;;;;;;5.30;4.80;;;;;;;15.54;83.97;99133.31;430826;1270;141934;-54
2022/06/09 21:19:28;;;;;;;6.30;5.40;;;;;;;15.55;84.08;99143.39;431116;1270;142025;-56
2022/06/09 21:29:31;;;;;;;7.50;6.50;;;;;;;15.62;84.30;99112.33;431451;1270;142528;-54
2022/06/09 21:39:34;;;;;;;6.30;5.70;;;;;;;15.59;84.48;99167.92;432299;1270;141938;-56
2022/06/09 21:49:37;;;;;;;6.90;6.20;;;;;;;15.59;84.68;99157.02;435892;1269;142295;-57
2022/06/09 21:59:41;;;;;;;8.20;6.10;;;;;;;15.67;85.16;99156.98;431703;1269;141825;-55
2022/06/09 22:09:44;;;;;;;8.20;7.30;;;;;;;15.77;85.50;99188.91;432780;1269;141398;-58
2022/06/09 22:19:47;;;;;;;6.40;5.80;;;;;;;15.88;85.66;99185.63;431803;1270;142020;-58
2022/06/09 22:29:51;;;;;;;5.80;5.30;;;;;;;15.92;85.68;99181.05;432457;1270;143046;-54
2022/06/09 22:39:54;;;;;;;6.00;5.40;;;;;;;15.94;85.91;99140.38;432305;1270;140969;-59
2022/06/09 22:49:57;;;;;;;5.80;5.20;;;;;;;15.99;85.91;99151.77;432771;1270;142103;-61
2022/06/09 23:00:00;;;;;;;7.20;6.60;;;;;;;15.93;85.86;99176.70;432416;1270;145626;-57
2022/06/09 23:10:07;;;;;;;7.90;6.50;;;;;;;15.89;86.19;99181.27;433522;1269;142383;-57
2022/06/09 23:20:13;;;;;;;8.70;6.90;;;;;;;15.90;86.27;99187.92;430264;1270;143908;-56
2022/06/09 23:30:19;;;;;;;7.40;6.80;;;;;;;15.77;86.31;99186.43;431751;1270;143221;-57
2022/06/09 23:40:25;;;;;;;7.50;6.70;;;;;;;15.68;86.87;99189.86;433427;1270;142539;-57
2022/06/09 23:50:30;;;;;;;10.00;7.30;;;;;;;15.71;87.35;99212.20;432008;1270;145670;-57
